sensor_id;sensor_type;location;lat;lon;timestamp;P1;durP1;ratioP1;P2;durP2;ratioP2
20348;SDS011;10332;50.208;18.988;2022-12-07T00:01:40;26.98;;;15.20;;
20348;SDS011;10332;50.208;18.988;2022-12-07T00:04:11;27.52;;;14.45;;
20348;SDS011;10332;50.208;18.988;2022-12-07T00:06:43;24.83;;;15.73;;
20348;SDS011;10332;50.208;18.988;2022-12-07T00:09:14;27.55;;;16.13;;
20348;SDS011;10332;50.208;18.988;2022-12-07T00:11:43;28.30;;;17.00;;
20348;SDS011;10332;50.208;18.988;2022-12-07T00:14:15;27.70;;;16.70;;
20348;SDS011;10332;50.208;18.988;2022-12-07T00:16:43;32.67;;;20.00;;
20348;SDS011;10332;50.208;18.988;2022-12-07T00:19:12;29.27;;;18.02;;
20348;SDS011;10332;50.208;18.988;2022-12-07T00:21:40;29.65;;;18.65;;
20348;SDS011;10332;50.208;18.988;2022-12-07T00:24:09;30.75;;;19.17;;
20348;SDS011;10332;50.208;18.988;2022-12-07T00:26:38;27.67;;;17.10;;
20348;SDS011;10332;50.208;18.988;2022-12-07T00:29:18;29.83;;;18.05;;
20348;SDS011;10332;50.208;18.988;2022-12-07T00:31:50;30.20;;;18.60;;
20348;SDS011;10332;50.208;18.988;2022-12-07T00:34:18;31.55;;;19.85;;
20348;SDS011;10332;50.208;18.988;2022-12-07T00:36:48;30.30;;;19.17;;
20348;SDS011;10332;50.208;18.988;2022-12-07T00:39:16;33.53;;;20.15;;
20348;SDS011;10332;50.208;18.988;2022-12-07T00:41:44;31.38;;;20.08;;
20348;SDS011;10332;50.208;18.988;2022-12-07T00:44:12;32.63;;;20.25;;
20348;SDS011;10332;50.208;18.988;2022-12-07T00:46:39;26.80;;;19.33;;
20348;SDS011;10332;50.208;18.988;2022-12-07T00:49:07;31.05;;;19.60;;
20348;SDS011;10332;50.208;18.988;2022-12-07T00:51:34;31.98;;;19.55;;
20348;SDS011;10332;50.208;18.988;2022-12-07T00:54:02;31.40;;;18.63;;
20348;SDS011;10332;50.208;18.988;2022-12-07T00:56:29;32.30;;;18.17;;
20348;SDS011;10332;50.208;18.988;2022-12-07T00:58:58;31.92;;;19.15;;
20348;SDS011;10332;50.208;18.988;2022-12-07T01:01:29;29.63;;;17.75;;
20348;SDS011;10332;50.208;18.988;2022-12-07T01:04:01;30.95;;;17.75;;
20348;SDS011;10332;50.208;18.988;2022-12-07T01:06:29;30.90;;;18.42;;
20348;SDS011;10332;50.208;18.988;2022-12-07T01:08:57;29.08;;;17.05;;
20348;SDS011;10332;50.208;18.988;2022-12-07T01:11:27;32.22;;;18.23;;
20348;SDS011;10332;50.208;18.988;2022-12-07T01:13:57;30.10;;;17.85;;
20348;SDS011;10332;50.208;18.988;2022-12-07T01:16:27;31.35;;;17.55;;
20348;SDS011;10332;50.208;18.988;2022-12-07T01:18:58;28.40;;;17.95;;
20348;SDS011;10332;50.208;18.988;2022-12-07T01:21:28;31.42;;;19.15;;
20348;SDS011;10332;50.208;18.988;2022-12-07T01:24:05;32.28;;;19.05;;
20348;SDS011;10332;50.208;18.988;2022-12-07T01:26:37;31.23;;;18.80;;
20348;SDS011;10332;50.208;18.988;2022-12-07T01:29:05;30.60;;;19.08;;
20348;SDS011;10332;50.208;18.988;2022-12-07T01:31:32;35.17;;;19.75;;
20348;SDS011;10332;50.208;18.988;2022-12-07T01:34:00;34.63;;;19.42;;
20348;SDS011;10332;50.208;18.988;2022-12-07T01:36:29;38.10;;;22.08;;
20348;SDS011;10332;50.208;18.988;2022-12-07T01:39:01;32.97;;;20.20;;
20348;SDS011;10332;50.208;18.988;2022-12-07T01:41:34;36.00;;;21.15;;
20348;SDS011;10332;50.208;18.988;2022-12-07T01:44:14;35.13;;;22.30;;
20348;SDS011;10332;50.208;18.988;2022-12-07T01:46:50;38.15;;;22.88;;
20348;SDS011;10332;50.208;18.988;2022-12-07T01:49:21;44.85;;;23.42;;
20348;SDS011;10332;50.208;18.988;2022-12-07T01:52:10;40.40;;;23.40;;
20348;SDS011;10332;50.208;18.988;2022-12-07T01:54:53;46.90;;;25.63;;
20348;SDS011;10332;50.208;18.988;2022-12-07T01:57:32;46.40;;;27.60;;
20348;SDS011;10332;50.208;18.988;2022-12-07T02:00:07;45.70;;;27.52;;
20348;SDS011;10332;50.208;18.988;2022-12-07T02:02:38;42.88;;;26.50;;
20348;SDS011;10332;50.208;18.988;2022-12-07T02:05:14;41.03;;;24.35;;
20348;SDS011;10332;50.208;18.988;2022-12-07T02:07:44;41.72;;;24.10;;
20348;SDS011;10332;50.208;18.988;2022-12-07T02:10:16;37.15;;;22.08;;
20348;SDS011;10332;50.208;18.988;2022-12-07T02:12:58;35.42;;;21.80;;
20348;SDS011;10332;50.208;18.988;2022-12-07T02:19:23;38.22;;;23.17;;
20348;SDS011;10332;50.208;18.988;2022-12-07T02:25:26;41.65;;;23.77;;
20348;SDS011;10332;50.208;18.988;2022-12-07T02:28:34;43.55;;;24.25;;
20348;SDS011;10332;50.208;18.988;2022-12-07T02:31:22;45.00;;;25.58;;
20348;SDS011;10332;50.208;18.988;2022-12-07T02:33:57;45.33;;;26.42;;
20348;SDS011;10332;50.208;18.988;2022-12-07T02:36:46;40.15;;;23.92;;
20348;SDS011;10332;50.208;18.988;2022-12-07T02:39:34;42.55;;;24.73;;
20348;SDS011;10332;50.208;18.988;2022-12-07T02:42:17;47.53;;;26.65;;
20348;SDS011;10332;50.208;18.988;2022-12-07T02:44:53;35.22;;;22.15;;
20348;SDS011;10332;50.208;18.988;2022-12-07T02:47:21;39.47;;;24.63;;
20348;SDS011;10332;50.208;18.988;2022-12-07T02:49:53;39.22;;;23.90;;
20348;SDS011;10332;50.208;18.988;2022-12-07T02:52:20;42.40;;;24.38;;
20348;SDS011;10332;50.208;18.988;2022-12-07T02:54:48;43.97;;;26.42;;
20348;SDS011;10332;50.208;18.988;2022-12-07T03:00:14;38.47;;;23.30;;
20348;SDS011;10332;50.208;18.988;2022-12-07T03:03:02;40.78;;;23.20;;
20348;SDS011;10332;50.208;18.988;2022-12-07T03:09:12;36.70;;;21.30;;
20348;SDS011;10332;50.208;18.988;2022-12-07T03:11:52;34.67;;;20.05;;
20348;SDS011;10332;50.208;18.988;2022-12-07T03:14:50;34.20;;;20.33;;
20348;SDS011;10332;50.208;18.988;2022-12-07T03:17:36;31.92;;;19.40;;
20348;SDS011;10332;50.208;18.988;2022-12-07T03:20:09;29.75;;;18.52;;
20348;SDS011;10332;50.208;18.988;2022-12-07T03:22:43;30.55;;;18.00;;
20348;SDS011;10332;50.208;18.988;2022-12-07T03:25:13;33.35;;;19.25;;
20348;SDS011;10332;50.208;18.988;2022-12-07T03:30:20;29.02;;;17.95;;
20348;SDS011;10332;50.208;18.988;2022-12-07T03:36:09;26.60;;;17.25;;
20348;SDS011;10332;50.208;18.988;2022-12-07T03:39:02;26.95;;;17.23;;
20348;SDS011;10332;50.208;18.988;2022-12-07T03:41:40;28.35;;;16.70;;
20348;SDS011;10332;50.208;18.988;2022-12-07T03:44:11;26.73;;;16.65;;
20348;SDS011;10332;50.208;18.988;2022-12-07T03:47:01;27.02;;;17.55;;
20348;SDS011;10332;50.208;18.988;2022-12-07T03:49:45;29.23;;;17.60;;
20348;SDS011;10332;50.208;18.988;2022-12-07T03:52:52;27.25;;;16.13;;
20348;SDS011;10332;50.208;18.988;2022-12-07T03:55:34;29.05;;;16.70;;
20348;SDS011;10332;50.208;18.988;2022-12-07T03:58:08;32.28;;;17.85;;
20348;SDS011;10332;50.208;18.988;2022-12-07T04:00:44;26.05;;;15.68;;
20348;SDS011;10332;50.208;18.988;2022-12-07T04:03:13;32.28;;;18.33;;
20348;SDS011;10332;50.208;18.988;2022-12-07T04:05:41;31.45;;;17.63;;
20348;SDS011;10332;50.208;18.988;2022-12-07T04:08:09;36.50;;;19.92;;
20348;SDS011;10332;50.208;18.988;2022-12-07T04:10:37;35.05;;;19.80;;
20348;SDS011;10332;50.208;18.988;2022-12-07T04:13:04;39.67;;;20.88;;
20348;SDS011;10332;50.208;18.988;2022-12-07T04:15:32;35.03;;;20.80;;
20348;SDS011;10332;50.208;18.988;2022-12-07T04:17:59;38.63;;;20.60;;
20348;SDS011;10332;50.208;18.988;2022-12-07T04:20:27;35.53;;;19.67;;
20348;SDS011;10332;50.208;18.988;2022-12-07T04:22:54;37.90;;;20.35;;
20348;SDS011;10332;50.208;18.988;2022-12-07T04:25:21;40.00;;;20.50;;
20348;SDS011;10332;50.208;18.988;2022-12-07T04:27:49;34.95;;;19.30;;
20348;SDS011;10332;50.208;18.988;2022-12-07T04:30:16;36.55;;;19.83;;
20348;SDS011;10332;50.208;18.988;2022-12-07T04:32:45;33.95;;;18.45;;
20348;SDS011;10332;50.208;18.988;2022-12-07T04:35:13;34.78;;;18.25;;
20348;SDS011;10332;50.208;18.988;2022-12-07T04:37:40;31.90;;;17.73;;
20348;SDS011;10332;50.208;18.988;2022-12-07T04:40:08;31.23;;;17.23;;
20348;SDS011;10332;50.208;18.988;2022-12-07T04:42:37;27.00;;;15.48;;
20348;SDS011;10332;50.208;18.988;2022-12-07T04:45:05;31.02;;;16.50;;
20348;SDS011;10332;50.208;18.988;2022-12-07T04:47:33;28.08;;;15.30;;
20348;SDS011;10332;50.208;18.988;2022-12-07T04:50:01;31.30;;;17.92;;
20348;SDS011;10332;50.208;18.988;2022-12-07T04:52:28;36.00;;;20.58;;
20348;SDS011;10332;50.208;18.988;2022-12-07T04:54:56;37.47;;;21.92;;
20348;SDS011;10332;50.208;18.988;2022-12-07T04:57:23;31.42;;;18.98;;
20348;SDS011;10332;50.208;18.988;2022-12-07T04:59:51;28.60;;;15.63;;
20348;SDS011;10332;50.208;18.988;2022-12-07T05:02:18;29.00;;;16.38;;
20348;SDS011;10332;50.208;18.988;2022-12-07T05:04:46;30.77;;;16.35;;
20348;SDS011;10332;50.208;18.988;2022-12-07T05:07:13;28.63;;;16.13;;
20348;SDS011;10332;50.208;18.988;2022-12-07T05:09:41;28.63;;;16.42;;
20348;SDS011;10332;50.208;18.988;2022-12-07T05:12:08;30.25;;;17.33;;
20348;SDS011;10332;50.208;18.988;2022-12-07T05:14:36;29.05;;;16.73;;
20348;SDS011;10332;50.208;18.988;2022-12-07T05:17:03;33.17;;;16.88;;
20348;SDS011;10332;50.208;18.988;2022-12-07T05:19:30;32.80;;;18.92;;
20348;SDS011;10332;50.208;18.988;2022-12-07T05:21:58;33.47;;;18.40;;
20348;SDS011;10332;50.208;18.988;2022-12-07T05:24:25;35.75;;;19.83;;
20348;SDS011;10332;50.208;18.988;2022-12-07T05:26:53;41.50;;;20.52;;
20348;SDS011;10332;50.208;18.988;2022-12-07T05:29:20;35.25;;;18.80;;
20348;SDS011;10332;50.208;18.988;2022-12-07T05:31:47;28.45;;;17.15;;
20348;SDS011;10332;50.208;18.988;2022-12-07T05:34:15;34.80;;;18.83;;
20348;SDS011;10332;50.208;18.988;2022-12-07T05:36:42;29.75;;;17.30;;
20348;SDS011;10332;50.208;18.988;2022-12-07T05:39:10;33.90;;;19.58;;
20348;SDS011;10332;50.208;18.988;2022-12-07T05:41:37;36.97;;;21.17;;
20348;SDS011;10332;50.208;18.988;2022-12-07T05:44:24;33.90;;;19.52;;
20348;SDS011;10332;50.208;18.988;2022-12-07T05:46:51;35.20;;;18.70;;
20348;SDS011;10332;50.208;18.988;2022-12-07T05:49:19;38.95;;;20.67;;
20348;SDS011;10332;50.208;18.988;2022-12-07T05:51:46;39.85;;;19.45;;
20348;SDS011;10332;50.208;18.988;2022-12-07T05:54:13;39.72;;;20.63;;
20348;SDS011;10332;50.208;18.988;2022-12-07T05:56:41;36.67;;;19.52;;
20348;SDS011;10332;50.208;18.988;2022-12-07T05:59:09;37.53;;;19.75;;
20348;SDS011;10332;50.208;18.988;2022-12-07T06:01:52;34.25;;;18.73;;
20348;SDS011;10332;50.208;18.988;2022-12-07T06:04:25;35.40;;;19.10;;
20348;SDS011;10332;50.208;18.988;2022-12-07T06:06:56;40.92;;;21.10;;
20348;SDS011;10332;50.208;18.988;2022-12-07T06:09:24;47.55;;;23.95;;
20348;SDS011;10332;50.208;18.988;2022-12-07T06:11:54;40.00;;;21.33;;
20348;SDS011;10332;50.208;18.988;2022-12-07T06:14:41;42.60;;;22.73;;
20348;SDS011;10332;50.208;18.988;2022-12-07T06:17:09;40.67;;;21.30;;
20348;SDS011;10332;50.208;18.988;2022-12-07T06:19:38;35.80;;;17.95;;
20348;SDS011;10332;50.208;18.988;2022-12-07T06:22:06;31.67;;;17.45;;
20348;SDS011;10332;50.208;18.988;2022-12-07T06:24:35;33.30;;;18.25;;
20348;SDS011;10332;50.208;18.988;2022-12-07T06:27:03;27.83;;;15.10;;
20348;SDS011;10332;50.208;18.988;2022-12-07T06:29:31;28.45;;;15.13;;
20348;SDS011;10332;50.208;18.988;2022-12-07T06:31:59;23.83;;;13.85;;
20348;SDS011;10332;50.208;18.988;2022-12-07T06:34:27;22.45;;;12.52;;
20348;SDS011;10332;50.208;18.988;2022-12-07T06:36:54;22.15;;;12.32;;
20348;SDS011;10332;50.208;18.988;2022-12-07T06:39:23;20.20;;;11.52;;
20348;SDS011;10332;50.208;18.988;2022-12-07T06:41:53;23.73;;;12.95;;
20348;SDS011;10332;50.208;18.988;2022-12-07T06:44:21;22.55;;;13.02;;
20348;SDS011;10332;50.208;18.988;2022-12-07T06:46:50;20.80;;;12.10;;
20348;SDS011;10332;50.208;18.988;2022-12-07T06:49:38;22.00;;;13.52;;
20348;SDS011;10332;50.208;18.988;2022-12-07T06:52:06;20.20;;;11.30;;
20348;SDS011;10332;50.208;18.988;2022-12-07T06:54:33;20.17;;;12.57;;
20348;SDS011;10332;50.208;18.988;2022-12-07T06:57:00;20.13;;;12.17;;
20348;SDS011;10332;50.208;18.988;2022-12-07T06:59:28;18.13;;;11.63;;
20348;SDS011;10332;50.208;18.988;2022-12-07T07:01:55;15.45;;;10.15;;
20348;SDS011;10332;50.208;18.988;2022-12-07T07:04:23;16.60;;;9.90;;
20348;SDS011;10332;50.208;18.988;2022-12-07T07:06:51;20.02;;;11.63;;
20348;SDS011;10332;50.208;18.988;2022-12-07T07:09:25;14.93;;;9.53;;
20348;SDS011;10332;50.208;18.988;2022-12-07T07:11:54;18.08;;;10.63;;
20348;SDS011;10332;50.208;18.988;2022-12-07T07:14:22;17.03;;;10.20;;
20348;SDS011;10332;50.208;18.988;2022-12-07T07:16:49;18.70;;;10.60;;
20348;SDS011;10332;50.208;18.988;2022-12-07T07:19:17;17.17;;;9.30;;
20348;SDS011;10332;50.208;18.988;2022-12-07T07:21:44;15.60;;;9.75;;
20348;SDS011;10332;50.208;18.988;2022-12-07T07:24:12;17.88;;;10.07;;
20348;SDS011;10332;50.208;18.988;2022-12-07T07:26:39;17.17;;;9.85;;
20348;SDS011;10332;50.208;18.988;2022-12-07T07:29:07;19.73;;;11.38;;
20348;SDS011;10332;50.208;18.988;2022-12-07T07:31:34;18.75;;;10.93;;
20348;SDS011;10332;50.208;18.988;2022-12-07T07:34:02;16.08;;;10.20;;
20348;SDS011;10332;50.208;18.988;2022-12-07T07:36:31;20.50;;;12.23;;
20348;SDS011;10332;50.208;18.988;2022-12-07T07:38:59;24.85;;;15.02;;
20348;SDS011;10332;50.208;18.988;2022-12-07T07:41:26;24.13;;;14.07;;
20348;SDS011;10332;50.208;18.988;2022-12-07T07:43:54;19.42;;;11.73;;
20348;SDS011;10332;50.208;18.988;2022-12-07T07:46:21;21.20;;;12.30;;
20348;SDS011;10332;50.208;18.988;2022-12-07T07:48:49;27.40;;;18.33;;
20348;SDS011;10332;50.208;18.988;2022-12-07T07:51:17;21.10;;;12.77;;
20348;SDS011;10332;50.208;18.988;2022-12-07T07:53:44;19.00;;;12.35;;
20348;SDS011;10332;50.208;18.988;2022-12-07T07:56:12;22.35;;;13.30;;
20348;SDS011;10332;50.208;18.988;2022-12-07T07:58:40;18.75;;;11.52;;
20348;SDS011;10332;50.208;18.988;2022-12-07T08:01:07;18.95;;;11.73;;
20348;SDS011;10332;50.208;18.988;2022-12-07T08:03:35;19.88;;;12.20;;
20348;SDS011;10332;50.208;18.988;2022-12-07T08:06:03;23.27;;;12.98;;
20348;SDS011;10332;50.208;18.988;2022-12-07T08:08:31;23.13;;;13.98;;
20348;SDS011;10332;50.208;18.988;2022-12-07T08:10:58;23.88;;;14.43;;
20348;SDS011;10332;50.208;18.988;2022-12-07T08:13:28;23.08;;;13.88;;
20348;SDS011;10332;50.208;18.988;2022-12-07T08:15:57;22.02;;;12.70;;
20348;SDS011;10332;50.208;18.988;2022-12-07T08:18:25;17.70;;;11.43;;
20348;SDS011;10332;50.208;18.988;2022-12-07T08:20:58;19.02;;;10.32;;
20348;SDS011;10332;50.208;18.988;2022-12-07T08:23:30;17.95;;;10.75;;
20348;SDS011;10332;50.208;18.988;2022-12-07T08:26:10;17.70;;;11.07;;
20348;SDS011;10332;50.208;18.988;2022-12-07T08:28:41;18.98;;;11.77;;
20348;SDS011;10332;50.208;18.988;2022-12-07T08:31:13;21.58;;;12.95;;
20348;SDS011;10332;50.208;18.988;2022-12-07T08:33:45;19.42;;;11.43;;
20348;SDS011;10332;50.208;18.988;2022-12-07T08:36:14;18.42;;;11.73;;
20348;SDS011;10332;50.208;18.988;2022-12-07T08:38:43;20.55;;;13.07;;
20348;SDS011;10332;50.208;18.988;2022-12-07T08:41:32;23.05;;;13.60;;
20348;SDS011;10332;50.208;18.988;2022-12-07T08:44:00;22.20;;;13.10;;
20348;SDS011;10332;50.208;18.988;2022-12-07T08:46:30;25.65;;;15.55;;
20348;SDS011;10332;50.208;18.988;2022-12-07T08:49:39;28.00;;;16.63;;
20348;SDS011;10332;50.208;18.988;2022-12-07T08:52:12;36.55;;;18.48;;
20348;SDS011;10332;50.208;18.988;2022-12-07T08:54:40;34.20;;;19.60;;
20348;SDS011;10332;50.208;18.988;2022-12-07T08:57:09;42.35;;;24.10;;
20348;SDS011;10332;50.208;18.988;2022-12-07T08:59:37;39.70;;;22.45;;
20348;SDS011;10332;50.208;18.988;2022-12-07T09:02:04;31.85;;;20.58;;
20348;SDS011;10332;50.208;18.988;2022-12-07T09:04:33;37.42;;;22.27;;
20348;SDS011;10332;50.208;18.988;2022-12-07T09:07:00;33.92;;;20.88;;
20348;SDS011;10332;50.208;18.988;2022-12-07T09:09:28;34.47;;;21.90;;
20348;SDS011;10332;50.208;18.988;2022-12-07T09:11:56;40.97;;;24.02;;
20348;SDS011;10332;50.208;18.988;2022-12-07T09:14:24;38.70;;;23.70;;
20348;SDS011;10332;50.208;18.988;2022-12-07T09:16:51;37.05;;;22.90;;
20348;SDS011;10332;50.208;18.988;2022-12-07T09:19:19;39.03;;;24.08;;
20348;SDS011;10332;50.208;18.988;2022-12-07T09:21:46;38.67;;;23.73;;
20348;SDS011;10332;50.208;18.988;2022-12-07T09:24:14;37.58;;;23.20;;
20348;SDS011;10332;50.208;18.988;2022-12-07T09:26:41;41.30;;;25.10;;
20348;SDS011;10332;50.208;18.988;2022-12-07T09:29:09;38.90;;;24.02;;
20348;SDS011;10332;50.208;18.988;2022-12-07T09:31:37;41.33;;;24.40;;
20348;SDS011;10332;50.208;18.988;2022-12-07T09:34:05;46.53;;;27.83;;
20348;SDS011;10332;50.208;18.988;2022-12-07T09:36:33;41.03;;;23.65;;
20348;SDS011;10332;50.208;18.988;2022-12-07T09:39:02;41.13;;;25.02;;
20348;SDS011;10332;50.208;18.988;2022-12-07T09:41:31;40.95;;;24.42;;
20348;SDS011;10332;50.208;18.988;2022-12-07T09:44:03;37.28;;;22.75;;
20348;SDS011;10332;50.208;18.988;2022-12-07T09:46:36;31.67;;;21.05;;
20348;SDS011;10332;50.208;18.988;2022-12-07T09:49:14;33.08;;;19.98;;
20348;SDS011;10332;50.208;18.988;2022-12-07T09:51:47;32.45;;;19.58;;
20348;SDS011;10332;50.208;18.988;2022-12-07T09:54:25;27.08;;;16.38;;
20348;SDS011;10332;50.208;18.988;2022-12-07T09:56:54;25.80;;;16.35;;
20348;SDS011;10332;50.208;18.988;2022-12-07T09:59:22;28.52;;;15.98;;
20348;SDS011;10332;50.208;18.988;2022-12-07T10:01:49;26.67;;;15.05;;
20348;SDS011;10332;50.208;18.988;2022-12-07T10:06:53;23.08;;;14.23;;
20348;SDS011;10332;50.208;18.988;2022-12-07T10:09:21;25.02;;;14.02;;
20348;SDS011;10332;50.208;18.988;2022-12-07T10:12:05;22.70;;;13.98;;
20348;SDS011;10332;50.208;18.988;2022-12-07T10:14:39;21.67;;;13.20;;
20348;SDS011;10332;50.208;18.988;2022-12-07T10:17:38;25.23;;;13.55;;
20348;SDS011;10332;50.208;18.988;2022-12-07T10:23:00;20.95;;;12.98;;
20348;SDS011;10332;50.208;18.988;2022-12-07T10:25:40;22.23;;;12.02;;
20348;SDS011;10332;50.208;18.988;2022-12-07T10:28:16;18.45;;;11.10;;
20348;SDS011;10332;50.208;18.988;2022-12-07T10:31:15;18.10;;;11.50;;
20348;SDS011;10332;50.208;18.988;2022-12-07T10:33:53;20.40;;;11.02;;
20348;SDS011;10332;50.208;18.988;2022-12-07T10:36:25;19.33;;;10.65;;
20348;SDS011;10332;50.208;18.988;2022-12-07T10:41:54;17.52;;;10.45;;
20348;SDS011;10332;50.208;18.988;2022-12-07T10:44:28;19.92;;;11.60;;
20348;SDS011;10332;50.208;18.988;2022-12-07T10:47:08;19.02;;;11.00;;
20348;SDS011;10332;50.208;18.988;2022-12-07T10:50:17;15.75;;;9.48;;
20348;SDS011;10332;50.208;18.988;2022-12-07T11:04:47;16.55;;;10.63;;
20348;SDS011;10332;50.208;18.988;2022-12-07T11:18:35;15.80;;;10.90;;
20348;SDS011;10332;50.208;18.988;2022-12-07T11:24:41;17.42;;;11.13;;
20348;SDS011;10332;50.208;18.988;2022-12-07T11:38:43;16.40;;;10.63;;
20348;SDS011;10332;50.208;18.988;2022-12-07T11:41:28;18.35;;;11.70;;
20348;SDS011;10332;50.208;18.988;2022-12-07T11:44:23;18.55;;;11.77;;
20348;SDS011;10332;50.208;18.988;2022-12-07T11:50:33;16.48;;;11.65;;
20348;SDS011;10332;50.208;18.988;2022-12-07T11:55:55;15.90;;;11.20;;
20348;SDS011;10332;50.208;18.988;2022-12-07T12:01:24;13.32;;;8.75;;
20348;SDS011;10332;50.208;18.988;2022-12-07T12:06:37;11.15;;;7.15;;
20348;SDS011;10332;50.208;18.988;2022-12-07T12:09:18;11.13;;;6.90;;
20348;SDS011;10332;50.208;18.988;2022-12-07T12:12:25;9.48;;;6.53;;
20348;SDS011;10332;50.208;18.988;2022-12-07T12:21:28;8.63;;;6.10;;
20348;SDS011;10332;50.208;18.988;2022-12-07T12:24:03;9.35;;;6.60;;
20348;SDS011;10332;50.208;18.988;2022-12-07T12:26:37;8.60;;;6.85;;
20348;SDS011;10332;50.208;18.988;2022-12-07T12:32:06;10.15;;;7.30;;
20348;SDS011;10332;50.208;18.988;2022-12-07T12:42:45;12.00;;;8.48;;
20348;SDS011;10332;50.208;18.988;2022-12-07T12:48:03;13.30;;;9.45;;
20348;SDS011;10332;50.208;18.988;2022-12-07T12:51:35;12.23;;;8.55;;
20348;SDS011;10332;50.208;18.988;2022-12-07T12:54:10;13.77;;;9.30;;
20348;SDS011;10332;50.208;18.988;2022-12-07T12:59:26;12.45;;;8.73;;
20348;SDS011;10332;50.208;18.988;2022-12-07T13:18:36;15.02;;;9.35;;
20348;SDS011;10332;50.208;18.988;2022-12-07T13:23:36;15.23;;;9.05;;
20348;SDS011;10332;50.208;18.988;2022-12-07T13:26:20;14.35;;;8.73;;
20348;SDS011;10332;50.208;18.988;2022-12-07T13:31:37;13.02;;;9.13;;
20348;SDS011;10332;50.208;18.988;2022-12-07T13:37:14;15.05;;;9.65;;
20348;SDS011;10332;50.208;18.988;2022-12-07T13:39:47;14.10;;;9.45;;
20348;SDS011;10332;50.208;18.988;2022-12-07T13:44:57;13.00;;;8.85;;
20348;SDS011;10332;50.208;18.988;2022-12-07T13:50:21;15.52;;;9.48;;
20348;SDS011;10332;50.208;18.988;2022-12-07T13:52:57;13.73;;;9.10;;
20348;SDS011;10332;50.208;18.988;2022-12-07T13:55:28;13.07;;;9.10;;
20348;SDS011;10332;50.208;18.988;2022-12-07T13:57:56;15.88;;;9.23;;
20348;SDS011;10332;50.208;18.988;2022-12-07T14:00:25;14.07;;;9.90;;
20348;SDS011;10332;50.208;18.988;2022-12-07T14:02:57;12.10;;;8.48;;
20348;SDS011;10332;50.208;18.988;2022-12-07T14:05:31;14.10;;;9.40;;
20348;SDS011;10332;50.208;18.988;2022-12-07T14:08:04;13.27;;;8.45;;
20348;SDS011;10332;50.208;18.988;2022-12-07T14:18:59;13.52;;;8.65;;
20348;SDS011;10332;50.208;18.988;2022-12-07T14:21:33;12.27;;;8.68;;
20348;SDS011;10332;50.208;18.988;2022-12-07T14:26:45;17.35;;;10.80;;
20348;SDS011;10332;50.208;18.988;2022-12-07T14:29:19;19.48;;;11.75;;
20348;SDS011;10332;50.208;18.988;2022-12-07T14:31:53;18.30;;;11.93;;
20348;SDS011;10332;50.208;18.988;2022-12-07T14:34:22;16.92;;;11.68;;
20348;SDS011;10332;50.208;18.988;2022-12-07T14:36:50;19.00;;;11.50;;
20348;SDS011;10332;50.208;18.988;2022-12-07T14:39:18;18.55;;;10.90;;
20348;SDS011;10332;50.208;18.988;2022-12-07T14:41:46;19.83;;;12.15;;
20348;SDS011;10332;50.208;18.988;2022-12-07T14:44:20;25.02;;;13.32;;
20348;SDS011;10332;50.208;18.988;2022-12-07T14:46:57;22.20;;;12.35;;
20348;SDS011;10332;50.208;18.988;2022-12-07T14:49:45;25.80;;;13.38;;
20348;SDS011;10332;50.208;18.988;2022-12-07T14:52:17;21.20;;;12.27;;
20348;SDS011;10332;50.208;18.988;2022-12-07T14:55:14;21.98;;;12.23;;
20348;SDS011;10332;50.208;18.988;2022-12-07T14:57:53;20.00;;;11.70;;
20348;SDS011;10332;50.208;18.988;2022-12-07T15:00:22;19.80;;;10.93;;
20348;SDS011;10332;50.208;18.988;2022-12-07T15:02:53;17.23;;;10.27;;
20348;SDS011;10332;50.208;18.988;2022-12-07T15:05:21;17.60;;;10.82;;
20348;SDS011;10332;50.208;18.988;2022-12-07T15:07:50;20.52;;;10.50;;
20348;SDS011;10332;50.208;18.988;2022-12-07T15:10:22;19.08;;;11.20;;
20348;SDS011;10332;50.208;18.988;2022-12-07T15:12:58;17.67;;;9.77;;
20348;SDS011;10332;50.208;18.988;2022-12-07T15:15:50;18.15;;;10.55;;
20348;SDS011;10332;50.208;18.988;2022-12-07T15:18:20;19.98;;;10.63;;
20348;SDS011;10332;50.208;18.988;2022-12-07T15:20:49;21.15;;;11.80;;
20348;SDS011;10332;50.208;18.988;2022-12-07T15:23:18;20.83;;;11.50;;
20348;SDS011;10332;50.208;18.988;2022-12-07T15:25:46;19.45;;;10.60;;
20348;SDS011;10332;50.208;18.988;2022-12-07T15:28:15;17.30;;;11.13;;
20348;SDS011;10332;50.208;18.988;2022-12-07T15:30:43;20.60;;;11.80;;
20348;SDS011;10332;50.208;18.988;2022-12-07T15:33:11;20.83;;;12.82;;
20348;SDS011;10332;50.208;18.988;2022-12-07T15:35:40;22.02;;;14.77;;
20348;SDS011;10332;50.208;18.988;2022-12-07T15:38:09;15.52;;;8.57;;
20348;SDS011;10332;50.208;18.988;2022-12-07T15:40:38;12.95;;;8.40;;
20348;SDS011;10332;50.208;18.988;2022-12-07T15:43:08;16.55;;;10.82;;
20348;SDS011;10332;50.208;18.988;2022-12-07T15:45:56;17.80;;;10.23;;
20348;SDS011;10332;50.208;18.988;2022-12-07T15:48:24;23.50;;;12.52;;
20348;SDS011;10332;50.208;18.988;2022-12-07T15:51:00;26.20;;;13.10;;
20348;SDS011;10332;50.208;18.988;2022-12-07T15:53:42;28.02;;;14.10;;
20348;SDS011;10332;50.208;18.988;2022-12-07T15:56:09;26.02;;;13.35;;
20348;SDS011;10332;50.208;18.988;2022-12-07T15:58:37;21.98;;;13.10;;
20348;SDS011;10332;50.208;18.988;2022-12-07T16:01:14;23.73;;;13.23;;
20348;SDS011;10332;50.208;18.988;2022-12-07T16:03:45;25.58;;;13.00;;
20348;SDS011;10332;50.208;18.988;2022-12-07T16:06:15;26.23;;;14.20;;
20348;SDS011;10332;50.208;18.988;2022-12-07T16:08:45;21.88;;;12.98;;
20348;SDS011;10332;50.208;18.988;2022-12-07T16:11:13;23.15;;;13.43;;
20348;SDS011;10332;50.208;18.988;2022-12-07T16:13:40;25.00;;;13.70;;
20348;SDS011;10332;50.208;18.988;2022-12-07T16:16:10;27.52;;;14.15;;
20348;SDS011;10332;50.208;18.988;2022-12-07T16:18:42;23.85;;;13.52;;
20348;SDS011;10332;50.208;18.988;2022-12-07T16:21:12;23.20;;;13.48;;
20348;SDS011;10332;50.208;18.988;2022-12-07T16:23:46;28.10;;;14.43;;
20348;SDS011;10332;50.208;18.988;2022-12-07T16:26:14;24.20;;;14.77;;
20348;SDS011;10332;50.208;18.988;2022-12-07T16:28:48;26.88;;;15.23;;
20348;SDS011;10332;50.208;18.988;2022-12-07T16:31:17;24.67;;;13.93;;
20348;SDS011;10332;50.208;18.988;2022-12-07T16:33:48;30.80;;;17.45;;
20348;SDS011;10332;50.208;18.988;2022-12-07T16:36:16;28.23;;;15.77;;
20348;SDS011;10332;50.208;18.988;2022-12-07T16:39:05;32.47;;;17.75;;
20348;SDS011;10332;50.208;18.988;2022-12-07T16:41:33;34.00;;;18.50;;
20348;SDS011;10332;50.208;18.988;2022-12-07T16:44:02;37.15;;;19.55;;
20348;SDS011;10332;50.208;18.988;2022-12-07T16:46:32;36.55;;;19.77;;
20348;SDS011;10332;50.208;18.988;2022-12-07T16:49:03;32.22;;;17.65;;
20348;SDS011;10332;50.208;18.988;2022-12-07T16:51:31;31.75;;;16.38;;
20348;SDS011;10332;50.208;18.988;2022-12-07T16:54:01;29.00;;;15.98;;
20348;SDS011;10332;50.208;18.988;2022-12-07T16:56:28;30.63;;;16.77;;
20348;SDS011;10332;50.208;18.988;2022-12-07T16:58:59;30.55;;;16.38;;
20348;SDS011;10332;50.208;18.988;2022-12-07T17:01:27;27.13;;;14.73;;
20348;SDS011;10332;50.208;18.988;2022-12-07T17:03:56;26.02;;;14.75;;